Kezdőlap
METAR-TAF:

METAR-TAF

Repülőterek :

Ivalói repülőtér

Ivalo, Finnország

földrajzi szélesség: 68-37N, földrajzi hosszúság: 027-25E, magasság: 147 m

Jelenlegi meteorológiai megfigyelések

A jelentés 37 perccel ezelõtt készült, 21:20 UTC
Különbözõ irányokból fújó szél 2 kt
Hőmérséklet -6°C
Páratartalom 93%
Légköri nyomás 1028 hPa
Látótávolság 10 km, vagy több
Borult 1100 lábon

METAR: EFIV 182120Z AUTO VRB02KT 9999 OVC011 M06/M07 Q1028

Idő: 23:57 (21:57 UTC)

Előrejelzés

A jelentés 7 órával és 29 perccel ezelõtt készült, 14:28 UTC
Az előrejelzés 18-én 15 óra UTC és 18-én 18 óra UTC között érvényes
Különbözõ irányokból fújó szél 2 kt
Látótávolság 10 km, vagy több
Borult 1500 lábon
18-én 15 óra UTC és 18-én 18 óra UTC között ideiglenes
Látótávolság: 4500 m
Szakadozott felhőzet 400 lábon
(gyenge) fagy, szitálás, hó

TAF: EFIV 181428Z 1815/1818 VRB02KT 9999 OVC015 TEMPO 1815/1818 4500 -FZDZSN BKN004

Meteorológiai megfigyelések és előrejelzések több, mint 4000 repülőtéren (METAR és TAF jelentéseket).

A térképen piros és sárga pontok jelzik az elérhető meteorológiai állomásokat.

Mozgassa az egeret a pont fölött, hogy megjelenjen az állomás neve.

Azután kattintson az időjárási megfigyelések és előrejelzések megtekintéséhez.

A térkép megváltoztatása: kattintson a fekete keresztel jelölt zöld gombra ráközelítéshez, a vonallal jelölt zöld gombra távolításhoz, vagy a zöld nyilakra a szomszédos térképek eléréséhez.


METAR-TAF: